createdAt,value
2022-11-10T00:00:02.452Z,12.10
2022-11-10T00:01:02.313Z,12.09
2022-11-10T00:02:02.520Z,12.10
2022-11-10T00:03:02.602Z,12.10
2022-11-10T00:04:02.571Z,12.09
2022-11-10T00:05:02.482Z,12.09
2022-11-10T00:06:02.346Z,12.09
2022-11-10T00:07:02.412Z,12.10
2022-11-10T00:08:02.216Z,12.10
2022-11-10T00:09:02.839Z,12.12
2022-11-10T00:10:02.851Z,12.14
2022-11-10T00:11:02.543Z,12.16
2022-11-10T00:12:02.453Z,12.17
2022-11-10T00:13:02.585Z,12.18
2022-11-10T00:14:02.563Z,12.19
2022-11-10T00:15:03.014Z,12.22
2022-11-10T00:16:02.909Z,12.21
2022-11-10T00:17:02.925Z,12.20
2022-11-10T00:18:03.089Z,12.20
2022-11-10T00:19:03.523Z,12.18
2022-11-10T00:20:03.224Z,12.17
2022-11-10T00:21:03.105Z,12.18
2022-11-10T00:22:03.178Z,12.16
2022-11-10T00:23:03.560Z,12.16
2022-11-10T00:24:03.264Z,12.14
2022-11-10T00:25:03.184Z,12.13
2022-11-10T00:26:03.514Z,12.13
2022-11-10T00:27:02.378Z,12.12
2022-11-10T00:28:02.618Z,12.12
2022-11-10T00:29:02.513Z,12.12
2022-11-10T00:30:02.849Z,12.13
2022-11-10T00:31:02.558Z,12.15
2022-11-10T00:32:03.173Z,12.16
2022-11-10T00:33:03.386Z,12.18
2022-11-10T00:34:03.278Z,12.18
2022-11-10T00:35:03.101Z,12.20
2022-11-10T00:36:03.126Z,12.21
2022-11-10T00:37:02.780Z,12.19
2022-11-10T00:38:02.984Z,12.23
2022-11-10T00:39:03.238Z,12.24
2022-11-10T00:40:02.913Z,12.25
2022-11-10T00:41:03.099Z,12.25
2022-11-10T00:42:03.435Z,12.26
2022-11-10T00:43:03.225Z,12.26
2022-11-10T00:44:03.652Z,12.26
2022-11-10T00:45:03.294Z,12.24
2022-11-10T00:46:03.636Z,12.22
2022-11-10T00:47:03.515Z,12.21
2022-11-10T00:48:03.573Z,12.22
2022-11-10T00:49:03.576Z,12.22
2022-11-10T00:50:03.171Z,12.21
2022-11-10T00:51:03.358Z,12.21
2022-11-10T00:52:03.266Z,12.19
2022-11-10T00:53:03.201Z,12.17
2022-11-10T00:54:03.362Z,12.17
2022-11-10T00:55:03.224Z,12.16
2022-11-10T00:56:03.412Z,12.15
2022-11-10T00:57:03.079Z,12.14
2022-11-10T00:58:03.382Z,12.12
2022-11-10T00:59:02.950Z,12.11
2022-11-10T01:00:02.986Z,12.10
2022-11-10T01:01:03.157Z,12.09
2022-11-10T01:02:02.766Z,12.05
2022-11-10T01:03:02.944Z,12.03
2022-11-10T01:04:02.994Z,12.03
2022-11-10T01:05:02.376Z,12.05
2022-11-10T01:06:02.328Z,12.07
2022-11-10T01:07:02.996Z,12.06
2022-11-10T01:08:02.895Z,12.06
2022-11-10T01:09:02.984Z,12.07
2022-11-10T01:10:02.930Z,12.05
2022-11-10T01:11:02.952Z,12.02
2022-11-10T01:12:02.553Z,12.01
2022-11-10T01:13:02.828Z,12.00
2022-11-10T01:14:02.711Z,12.00
2022-11-10T01:15:02.530Z,11.98
2022-11-10T01:16:02.583Z,11.97
2022-11-10T01:17:02.941Z,11.96
2022-11-10T01:18:02.778Z,11.96
2022-11-10T01:19:03.286Z,11.97
2022-11-10T01:20:03.322Z,11.95
2022-11-10T01:21:02.932Z,11.96
2022-11-10T01:22:02.097Z,11.97
2022-11-10T01:23:02.230Z,11.99
2022-11-10T01:24:02.055Z,11.99
2022-11-10T01:25:01.909Z,12.01
2022-11-10T01:26:02.340Z,12.00
2022-11-10T01:27:02.075Z,11.99
2022-11-10T01:28:02.128Z,11.98
2022-11-10T01:29:02.031Z,11.99
2022-11-10T01:30:01.853Z,11.99
2022-11-10T01:31:01.876Z,11.97
2022-11-10T01:32:02.961Z,11.98
2022-11-10T01:33:02.907Z,11.98
2022-11-10T01:34:02.424Z,11.98
2022-11-10T01:35:02.564Z,11.95
2022-11-10T01:36:02.566Z,11.88
2022-11-10T01:37:02.974Z,11.83
2022-11-10T01:38:02.799Z,11.81
2022-11-10T01:39:03.382Z,11.78
2022-11-10T01:40:03.059Z,11.76
2022-11-10T01:41:02.992Z,11.74
2022-11-10T01:42:02.222Z,11.73
2022-11-10T01:43:02.427Z,11.70
2022-11-10T01:44:02.713Z,11.66
2022-11-10T01:45:02.891Z,11.63
2022-11-10T01:46:02.873Z,11.62
2022-11-10T01:47:01.946Z,11.63
2022-11-10T01:48:02.077Z,11.64
2022-11-10T01:49:01.986Z,11.63
2022-11-10T01:50:02.116Z,11.62
2022-11-10T01:51:02.053Z,11.64
2022-11-10T01:52:02.588Z,11.64
2022-11-10T01:53:02.445Z,11.64
2022-11-10T01:54:02.667Z,11.62
2022-11-10T01:55:02.703Z,11.61
2022-11-10T01:56:02.581Z,11.58
2022-11-10T01:57:02.880Z,11.58
2022-11-10T01:58:03.061Z,11.59
2022-11-10T01:59:02.768Z,11.60
2022-11-10T02:00:02.789Z,11.63
2022-11-10T02:01:02.663Z,11.64
2022-11-10T02:02:02.695Z,11.67
2022-11-10T02:03:02.403Z,11.68
2022-11-10T02:04:02.277Z,11.71
2022-11-10T02:05:02.688Z,11.73
2022-11-10T02:06:02.453Z,11.74
2022-11-10T02:07:02.543Z,11.74
2022-11-10T02:08:02.492Z,11.73
2022-11-10T02:09:02.687Z,11.72
2022-11-10T02:10:02.646Z,11.73
2022-11-10T02:11:02.508Z,11.72
2022-11-10T02:12:02.539Z,11.70
2022-11-10T02:13:02.822Z,11.66
2022-11-10T02:14:02.761Z,11.66
2022-11-10T02:15:02.975Z,11.67
2022-11-10T02:16:02.823Z,11.67
2022-11-10T02:17:01.853Z,11.67
2022-11-10T02:18:01.968Z,11.67
2022-11-10T02:19:02.339Z,11.67
2022-11-10T02:20:02.313Z,11.64
2022-11-10T02:21:02.344Z,11.65
2022-11-10T02:22:02.793Z,11.62
2022-11-10T02:23:02.339Z,11.58
2022-11-10T02:24:02.845Z,11.54
2022-11-10T02:25:02.705Z,11.52
2022-11-10T02:26:02.532Z,11.52
2022-11-10T02:27:02.511Z,11.51
2022-11-10T02:28:03.019Z,11.51
2022-11-10T02:29:03.066Z,11.50
2022-11-10T02:30:03.132Z,11.50
2022-11-10T02:31:02.540Z,11.50
2022-11-10T02:32:02.404Z,11.51
2022-11-10T02:33:02.310Z,11.48
2022-11-10T02:34:02.221Z,11.47
2022-11-10T02:35:02.201Z,11.44
2022-11-10T02:36:02.497Z,11.43
2022-11-10T02:37:02.251Z,11.40
2022-11-10T02:38:02.178Z,11.42
2022-11-10T02:39:02.536Z,11.40
2022-11-10T02:40:02.256Z,11.40
2022-11-10T02:41:02.126Z,11.40
2022-11-10T02:42:02.477Z,11.39
2022-11-10T02:43:02.688Z,11.38
2022-11-10T02:44:02.323Z,11.34
2022-11-10T02:45:02.212Z,11.34
2022-11-10T02:46:02.083Z,11.32
2022-11-10T02:47:01.702Z,11.34
2022-11-10T02:48:01.905Z,11.33
2022-11-10T02:49:02.122Z,11.34
2022-11-10T02:50:02.074Z,11.35
2022-11-10T02:51:02.154Z,11.35
2022-11-10T02:52:02.310Z,11.32
2022-11-10T02:53:02.206Z,11.31
2022-11-10T02:54:02.669Z,11.34
2022-11-10T02:55:02.395Z,11.34
2022-11-10T02:56:02.130Z,11.32
2022-11-10T02:57:02.592Z,11.29
2022-11-10T02:58:03.027Z,11.27
2022-11-10T02:59:02.895Z,11.24
2022-11-10T03:00:02.549Z,11.21
2022-11-10T03:01:02.725Z,11.21
2022-11-10T03:02:03.052Z,11.21
2022-11-10T03:03:02.803Z,11.20
2022-11-10T03:04:03.247Z,11.18
2022-11-10T03:05:03.166Z,11.17
2022-11-10T03:06:03.117Z,11.17
2022-11-10T03:07:03.112Z,11.14
2022-11-10T03:08:03.616Z,11.11
2022-11-10T03:09:03.299Z,11.07
2022-11-10T03:10:03.234Z,11.05
2022-11-10T03:11:03.491Z,11.04
2022-11-10T03:12:03.318Z,11.03
2022-11-10T03:13:02.956Z,11.02
2022-11-10T03:14:03.013Z,11.04
2022-11-10T03:15:02.734Z,11.06
2022-11-10T03:16:03.018Z,11.07
2022-11-10T03:17:03.509Z,11.06
2022-11-10T03:18:03.005Z,11.06
2022-11-10T03:19:03.439Z,11.03
2022-11-10T03:20:03.497Z,11.03
2022-11-10T03:21:03.303Z,11.01
2022-11-10T03:22:03.352Z,11.00
2022-11-10T03:23:03.207Z,11.00
2022-11-10T03:24:03.213Z,11.01
2022-11-10T03:25:03.833Z,11.01
2022-11-10T03:26:03.508Z,11.00
2022-11-10T03:27:02.984Z,11.03
2022-11-10T03:28:02.876Z,11.06
2022-11-10T03:29:02.901Z,11.08
2022-11-10T03:30:02.652Z,11.12
2022-11-10T03:31:02.715Z,11.17
2022-11-10T03:32:02.591Z,11.21
2022-11-10T03:33:03.005Z,11.19
2022-11-10T03:34:02.858Z,11.21
2022-11-10T03:35:03.118Z,11.24
2022-11-10T03:36:02.803Z,11.24
2022-11-10T03:37:03.200Z,11.23
2022-11-10T03:38:03.322Z,11.24
2022-11-10T03:39:03.589Z,11.25
2022-11-10T03:40:03.467Z,11.28
2022-11-10T03:41:18.613Z,11.30
2022-11-10T03:42:02.888Z,11.30
2022-11-10T03:43:03.355Z,11.29
2022-11-10T03:44:03.197Z,11.29
2022-11-10T03:45:03.069Z,11.31
2022-11-10T03:46:02.859Z,11.30
2022-11-10T03:47:03.610Z,11.29
2022-11-10T03:48:03.546Z,11.27
2022-11-10T03:49:03.495Z,11.24
2022-11-10T03:50:03.336Z,11.24
2022-11-10T03:51:03.702Z,11.22
2022-11-10T03:52:02.816Z,11.19
2022-11-10T03:53:02.688Z,11.17
2022-11-10T03:54:02.750Z,11.15
2022-11-10T03:55:03.683Z,11.10
2022-11-10T03:56:02.475Z,11.06
2022-11-10T03:57:03.024Z,11.03
2022-11-10T03:58:03.493Z,10.98
2022-11-10T03:59:02.977Z,10.95
2022-11-10T04:00:03.283Z,10.89
2022-11-10T04:01:03.007Z,10.87
2022-11-10T04:02:02.785Z,10.83
2022-11-10T04:03:02.516Z,10.80
2022-11-10T04:04:02.530Z,10.80
2022-11-10T04:05:02.811Z,10.80
2022-11-10T04:06:02.728Z,10.82
2022-11-10T04:07:02.971Z,10.83
2022-11-10T04:08:03.163Z,10.88
2022-11-10T04:09:02.694Z,10.92
2022-11-10T04:10:02.659Z,10.95
2022-11-10T04:11:03.113Z,10.98
2022-11-10T04:12:03.249Z,11.00
2022-11-10T04:13:03.264Z,11.01
2022-11-10T04:14:03.370Z,11.00
2022-11-10T04:15:02.829Z,10.97
2022-11-10T04:16:02.727Z,10.95
2022-11-10T04:17:02.616Z,10.92
2022-11-10T04:18:02.112Z,10.92
2022-11-10T04:19:02.700Z,10.90
2022-11-10T04:20:02.110Z,10.87
2022-11-10T04:21:02.220Z,10.82
2022-11-10T04:22:03.409Z,10.80
2022-11-10T04:23:02.612Z,10.80
2022-11-10T04:24:02.691Z,10.80
2022-11-10T04:25:02.561Z,10.80
2022-11-10T04:26:03.168Z,10.78
2022-11-10T04:27:02.882Z,10.78
2022-11-10T04:28:03.128Z,10.78
2022-11-10T04:29:03.407Z,10.78
2022-11-10T04:30:03.169Z,10.79
2022-11-10T04:31:03.003Z,10.79
2022-11-10T04:32:02.891Z,10.80
2022-11-10T04:33:02.579Z,10.82
2022-11-10T04:34:02.389Z,10.84
2022-11-10T04:35:02.432Z,10.85
2022-11-10T04:36:02.323Z,10.87
2022-11-10T04:37:03.026Z,10.91
2022-11-10T04:38:02.635Z,10.91
2022-11-10T04:39:03.027Z,10.90
2022-11-10T04:40:02.630Z,10.93
2022-11-10T04:41:03.189Z,10.94
2022-11-10T04:42:03.163Z,10.95
2022-11-10T04:43:03.245Z,10.97
2022-11-10T04:44:03.354Z,10.99
2022-11-10T04:45:02.970Z,10.99
2022-11-10T04:46:02.861Z,10.99
2022-11-10T04:47:03.880Z,10.98
2022-11-10T04:48:02.441Z,10.97
2022-11-10T04:49:02.262Z,10.96
2022-11-10T04:50:02.114Z,10.97
2022-11-10T04:51:02.328Z,10.99
2022-11-10T04:52:03.075Z,10.98
2022-11-10T04:53:03.167Z,10.97
2022-11-10T04:54:02.686Z,10.95
2022-11-10T04:55:02.971Z,10.93
2022-11-10T04:56:03.125Z,10.87
2022-11-10T04:57:03.375Z,10.82
2022-11-10T04:58:03.286Z,10.82
2022-11-10T04:59:03.218Z,10.79
2022-11-10T05:00:03.173Z,10.75
2022-11-10T05:01:03.333Z,10.73
2022-11-10T05:02:02.571Z,10.74
2022-11-10T05:03:02.428Z,10.72
2022-11-10T05:04:02.315Z,10.69
2022-11-10T05:05:02.190Z,10.71
2022-11-10T05:06:02.646Z,10.68
2022-11-10T05:07:03.330Z,10.69
2022-11-10T05:08:03.442Z,10.67
2022-11-10T05:09:02.986Z,10.63
2022-11-10T05:10:03.302Z,10.62
2022-11-10T05:11:03.041Z,10.56
2022-11-10T05:12:02.633Z,10.52
2022-11-10T05:13:02.271Z,10.52
2022-11-10T05:14:02.302Z,10.51
2022-11-10T05:15:02.156Z,10.51
2022-11-10T05:16:01.968Z,10.52
2022-11-10T05:17:02.760Z,10.51
2022-11-10T05:18:02.309Z,10.45
2022-11-10T05:19:02.843Z,10.42
2022-11-10T05:20:02.525Z,10.39
2022-11-10T05:21:02.870Z,10.37
2022-11-10T05:22:02.834Z,10.36
2022-11-10T05:23:03.355Z,10.36
2022-11-10T05:24:02.872Z,10.33
2022-11-10T05:25:02.677Z,10.32
2022-11-10T05:26:02.932Z,10.27
2022-11-10T05:27:02.292Z,10.27
2022-11-10T05:28:02.528Z,10.28
2022-11-10T05:29:02.007Z,10.29
2022-11-10T05:30:02.090Z,10.31
2022-11-10T05:31:02.533Z,10.31
2022-11-10T05:32:02.361Z,10.29
2022-11-10T05:33:02.292Z,10.31
2022-11-10T05:34:02.909Z,10.27
2022-11-10T05:35:02.350Z,10.31
2022-11-10T05:36:02.293Z,10.32
2022-11-10T05:37:03.323Z,10.33
2022-11-10T05:38:02.870Z,10.38
2022-11-10T05:39:02.857Z,10.40
2022-11-10T05:40:02.748Z,10.42
2022-11-10T05:41:03.431Z,10.42
2022-11-10T05:42:02.862Z,10.42
2022-11-10T05:43:03.274Z,10.40
2022-11-10T05:44:03.415Z,10.38
2022-11-10T05:45:03.387Z,10.35
2022-11-10T05:46:03.051Z,10.31
2022-11-10T05:47:02.947Z,10.31
2022-11-10T05:48:02.280Z,10.30
2022-11-10T05:49:02.764Z,10.29
2022-11-10T05:50:02.344Z,10.28
2022-11-10T05:51:02.926Z,10.26
2022-11-10T05:52:02.882Z,10.26
2022-11-10T05:53:02.591Z,10.26
2022-11-10T05:54:02.627Z,10.26
2022-11-10T05:55:02.830Z,10.24
2022-11-10T05:56:02.611Z,10.24
2022-11-10T05:57:02.792Z,10.21
2022-11-10T05:58:02.948Z,10.23
2022-11-10T05:59:03.367Z,10.21
2022-11-10T06:00:03.072Z,10.23
2022-11-10T06:01:02.668Z,10.22
2022-11-10T06:02:02.660Z,10.25
2022-11-10T06:03:03.213Z,10.29
2022-11-10T06:04:03.407Z,10.31
2022-11-10T06:05:03.322Z,10.33
2022-11-10T06:06:02.959Z,10.36
2022-11-10T06:07:02.990Z,10.37
2022-11-10T06:08:03.524Z,10.37
2022-11-10T06:09:03.366Z,10.36
2022-11-10T06:10:03.044Z,10.35
2022-11-10T06:11:03.333Z,10.31
2022-11-10T06:12:03.512Z,10.30
2022-11-10T06:13:03.353Z,10.27
2022-11-10T06:14:03.667Z,10.29
2022-11-10T06:15:03.467Z,10.30
2022-11-10T06:16:03.172Z,10.25
2022-11-10T06:17:02.996Z,10.24
2022-11-10T06:18:02.533Z,10.24
2022-11-10T06:19:02.866Z,10.26
2022-11-10T06:20:02.753Z,10.26
2022-11-10T06:21:02.817Z,10.29
2022-11-10T06:22:07.507Z,10.27
2022-11-10T06:23:03.065Z,10.22
2022-11-10T06:24:02.882Z,10.21
2022-11-10T06:25:03.208Z,10.14
2022-11-10T06:26:02.976Z,10.11
2022-11-10T06:27:02.528Z,10.12
2022-11-10T06:28:02.750Z,10.12
2022-11-10T06:29:02.972Z,10.13
2022-11-10T06:30:02.605Z,10.12
2022-11-10T06:31:02.960Z,10.14
2022-11-10T06:32:02.863Z,10.14
2022-11-10T06:33:03.330Z,10.13
2022-11-10T06:34:03.014Z,10.13
2022-11-10T06:35:02.828Z,10.08
2022-11-10T06:36:03.159Z,10.09
2022-11-10T06:37:03.572Z,10.08
2022-11-10T06:38:03.014Z,10.04
2022-11-10T06:39:03.476Z,9.96
2022-11-10T06:40:03.635Z,9.94
2022-11-10T06:41:03.539Z,9.96
2022-11-10T06:42:03.225Z,9.97
2022-11-10T06:43:03.626Z,9.98
2022-11-10T06:44:03.704Z,9.92
2022-11-10T06:45:03.306Z,9.95
2022-11-10T06:46:03.535Z,9.96
2022-11-10T06:47:02.688Z,9.90
2022-11-10T06:48:03.018Z,9.88
2022-11-10T06:49:02.929Z,9.90
2022-11-10T06:50:02.880Z,9.92
2022-11-10T06:51:02.921Z,9.94
2022-11-10T06:52:03.284Z,9.95
2022-11-10T06:53:03.162Z,9.97
2022-11-10T06:54:02.880Z,9.99
2022-11-10T06:55:02.967Z,9.95
2022-11-10T06:56:03.364Z,9.96
2022-11-10T06:57:03.724Z,9.97
2022-11-10T06:58:03.757Z,9.95
2022-11-10T06:59:03.329Z,9.96
2022-11-10T07:00:03.640Z,9.96
2022-11-10T07:01:03.675Z,9.94
2022-11-10T07:02:02.922Z,9.96
2022-11-10T07:03:02.760Z,9.93
2022-11-10T07:04:19.312Z,9.89
2022-11-10T07:05:02.995Z,9.93
2022-11-10T07:06:03.034Z,9.93
2022-11-10T07:07:03.454Z,9.95
2022-11-10T07:08:03.168Z,9.93
2022-11-10T07:09:03.221Z,9.90
2022-11-10T07:10:06.987Z,9.89
2022-11-10T07:11:03.403Z,9.81
2022-11-10T07:12:03.466Z,9.74
2022-11-10T07:13:03.171Z,9.68
2022-11-10T07:14:03.335Z,9.66
2022-11-10T07:15:03.411Z,9.68
2022-11-10T07:16:03.634Z,9.69
2022-11-10T07:17:03.469Z,9.69
2022-11-10T07:18:03.744Z,9.72
2022-11-10T07:19:03.423Z,9.75
2022-11-10T07:20:03.648Z,9.79
2022-11-10T07:21:03.878Z,9.81
2022-11-10T07:22:08.013Z,9.84
2022-11-10T07:23:02.914Z,9.84
2022-11-10T07:24:02.572Z,9.79
2022-11-10T07:25:02.440Z,9.82
2022-11-10T07:26:02.402Z,9.84
2022-11-10T07:27:03.236Z,9.87
2022-11-10T07:28:02.862Z,9.88
2022-11-10T07:29:02.960Z,9.89
2022-11-10T07:30:03.092Z,9.90
2022-11-10T07:31:02.917Z,9.89
2022-11-10T07:32:02.863Z,9.85
2022-11-10T07:33:02.658Z,9.86
2022-11-10T07:34:02.801Z,9.88
2022-11-10T07:35:02.701Z,9.90
2022-11-10T07:36:02.725Z,9.92
2022-11-10T07:37:03.407Z,9.92
2022-11-10T07:38:03.366Z,9.91
2022-11-10T07:39:03.583Z,9.90
2022-11-10T07:40:03.038Z,9.90
2022-11-10T07:41:03.015Z,9.90
2022-11-10T07:42:02.916Z,9.92
2022-11-10T07:43:02.588Z,9.94
2022-11-10T07:44:02.747Z,9.89
2022-11-10T07:45:02.811Z,9.95
2022-11-10T07:46:02.825Z,9.96
2022-11-10T07:47:02.687Z,9.98
2022-11-10T07:48:02.821Z,10.00
2022-11-10T07:49:02.709Z,9.96
2022-11-10T07:50:03.146Z,9.96
2022-11-10T07:51:02.856Z,9.94
2022-11-10T07:52:03.813Z,9.97
2022-11-10T07:53:03.925Z,10.02
2022-11-10T07:54:03.770Z,10.03
2022-11-10T07:55:03.592Z,10.06
2022-11-10T07:56:03.917Z,10.08
2022-11-10T07:57:02.852Z,10.12
2022-11-10T07:58:03.255Z,10.11
2022-11-10T07:59:02.915Z,10.15
2022-11-10T08:00:03.244Z,10.19
2022-11-10T08:01:03.419Z,10.22
2022-11-10T08:02:02.720Z,10.24
2022-11-10T08:03:02.780Z,10.26
2022-11-10T08:04:02.804Z,10.27
2022-11-10T08:05:02.355Z,10.28
2022-11-10T08:06:02.935Z,10.30
2022-11-10T08:07:02.372Z,10.30
2022-11-10T08:08:02.083Z,10.33
2022-11-10T08:09:02.263Z,10.34
2022-11-10T08:10:02.171Z,10.39
2022-11-10T08:11:02.221Z,10.39
2022-11-10T08:12:02.511Z,10.41
2022-11-10T08:13:02.553Z,10.41
2022-11-10T08:14:02.850Z,10.43
2022-11-10T08:15:02.643Z,10.42
2022-11-10T08:16:02.422Z,10.46
2022-11-10T08:17:03.153Z,10.49
2022-11-10T08:18:02.980Z,10.49
2022-11-10T08:19:02.834Z,10.52
2022-11-10T08:20:02.820Z,10.54
2022-11-10T08:21:02.717Z,10.57
2022-11-10T08:22:03.007Z,10.60
2022-11-10T08:23:02.959Z,10.64
2022-11-10T08:24:03.028Z,10.69
2022-11-10T08:25:02.937Z,10.71
2022-11-10T08:26:02.781Z,10.75
2022-11-10T08:27:02.539Z,10.76
2022-11-10T08:28:02.190Z,10.79
2022-11-10T08:29:02.340Z,10.80
2022-11-10T08:30:02.657Z,10.79
2022-11-10T08:31:05.551Z,10.82
2022-11-10T08:32:02.723Z,10.83
2022-11-10T08:33:02.565Z,10.84
2022-11-10T08:34:02.670Z,10.85
2022-11-10T08:35:02.245Z,10.87
2022-11-10T08:36:02.184Z,10.89
2022-11-10T08:37:03.167Z,10.93
2022-11-10T08:38:08.077Z,10.96
2022-11-10T08:39:02.808Z,10.98
2022-11-10T08:40:03.223Z,11.03
2022-11-10T08:41:02.800Z,11.06
2022-11-10T08:42:02.203Z,11.11
2022-11-10T08:43:02.605Z,11.15
2022-11-10T08:44:02.138Z,11.16
2022-11-10T08:45:02.171Z,11.18
2022-11-10T08:46:02.288Z,11.17
2022-11-10T08:47:02.788Z,11.19
2022-11-10T08:48:02.546Z,11.20
2022-11-10T08:49:02.219Z,11.21
2022-11-10T08:50:02.237Z,11.23
2022-11-10T08:51:02.252Z,11.27
2022-11-10T08:52:02.725Z,11.29
2022-11-10T08:53:02.849Z,11.31
2022-11-10T08:54:02.985Z,11.34
2022-11-10T08:55:03.033Z,11.37
2022-11-10T08:56:03.086Z,11.39
2022-11-10T08:57:02.204Z,11.42
2022-11-10T08:58:02.758Z,11.44
2022-11-10T08:59:02.678Z,11.46
2022-11-10T09:00:02.298Z,11.50
2022-11-10T09:01:02.326Z,11.52
2022-11-10T09:02:02.812Z,11.56
2022-11-10T09:03:02.845Z,11.59
2022-11-10T09:04:03.408Z,11.63
2022-11-10T09:05:02.908Z,11.67
2022-11-10T09:06:03.338Z,11.71
2022-11-10T09:07:03.672Z,11.77
2022-11-10T09:08:03.549Z,11.81
2022-11-10T09:09:03.111Z,11.86
2022-11-10T09:10:07.345Z,11.91
2022-11-10T09:11:03.355Z,11.95
2022-11-10T09:12:02.629Z,11.99
2022-11-10T09:13:03.120Z,12.04
2022-11-10T09:14:02.785Z,12.07
2022-11-10T09:15:02.755Z,12.12
2022-11-10T09:16:02.955Z,12.16
2022-11-10T09:17:03.165Z,12.21
2022-11-10T09:18:03.041Z,12.23
2022-11-10T09:19:02.992Z,12.26
2022-11-10T09:20:03.136Z,12.29
2022-11-10T09:21:03.076Z,12.31
2022-11-10T09:22:02.461Z,12.32
2022-11-10T09:23:02.727Z,12.32
2022-11-10T09:24:02.797Z,12.34
2022-11-10T09:25:02.841Z,12.35
2022-11-10T09:26:02.487Z,12.37
2022-11-10T09:27:03.207Z,12.40
2022-11-10T09:28:02.629Z,12.44
2022-11-10T09:29:03.120Z,12.48
2022-11-10T09:30:02.718Z,12.52
2022-11-10T09:31:02.855Z,12.57
2022-11-10T09:32:03.356Z,12.63
2022-11-10T09:33:03.146Z,12.68
2022-11-10T09:34:03.161Z,12.74
2022-11-10T09:35:03.225Z,12.80
2022-11-10T09:36:03.098Z,12.83
2022-11-10T09:37:03.375Z,12.87
2022-11-10T09:38:03.617Z,12.85
2022-11-10T09:39:03.120Z,12.84
2022-11-10T09:40:03.266Z,12.85
2022-11-10T09:41:03.122Z,12.85
2022-11-10T09:42:02.366Z,12.85
2022-11-10T09:43:02.380Z,12.87
2022-11-10T09:44:02.591Z,12.88
2022-11-10T09:45:02.348Z,12.89
2022-11-10T09:46:02.802Z,12.91
2022-11-10T09:47:02.985Z,12.95
2022-11-10T09:48:02.900Z,12.98
2022-11-10T09:49:02.891Z,13.01
2022-11-10T09:50:02.822Z,13.03
2022-11-10T09:51:03.353Z,13.03
2022-11-10T09:52:02.394Z,13.05
2022-11-10T09:53:02.492Z,13.09
2022-11-10T09:54:02.644Z,13.14
2022-11-10T09:55:02.749Z,13.18
2022-11-10T09:56:02.216Z,13.22
2022-11-10T09:57:02.501Z,13.25
2022-11-10T09:58:02.453Z,13.27
2022-11-10T09:59:02.719Z,13.28
2022-11-10T10:00:02.652Z,13.31
2022-11-10T10:01:02.729Z,13.33
2022-11-10T10:02:02.529Z,13.34
2022-11-10T10:03:02.371Z,13.37
2022-11-10T10:04:02.604Z,13.38
2022-11-10T10:05:02.509Z,13.39
2022-11-10T10:06:02.526Z,13.41
2022-11-10T10:07:11.213Z,13.44
2022-11-10T10:08:02.204Z,13.47
2022-11-10T10:09:02.442Z,13.51
2022-11-10T10:10:02.494Z,13.56
2022-11-10T10:11:02.297Z,13.60
2022-11-10T10:12:02.177Z,13.64
2022-11-10T10:13:01.980Z,13.66
2022-11-10T10:14:02.348Z,13.68
2022-11-10T10:15:02.276Z,13.71
2022-11-10T10:16:02.555Z,13.75
2022-11-10T10:17:02.450Z,13.79
2022-11-10T10:18:02.576Z,13.83
2022-11-10T10:19:02.271Z,13.88
2022-11-10T10:20:02.241Z,13.92
2022-11-10T10:21:02.509Z,13.94
2022-11-10T10:22:02.533Z,13.94
2022-11-10T10:23:02.000Z,13.97
2022-11-10T10:24:12.679Z,14.00
2022-11-10T10:25:01.810Z,14.04
2022-11-10T10:26:02.331Z,14.07
2022-11-10T10:27:01.874Z,14.10
2022-11-10T10:28:01.779Z,14.12
2022-11-10T10:29:01.851Z,14.16
2022-11-10T10:30:01.828Z,14.20
2022-11-10T10:31:01.870Z,14.25
2022-11-10T10:32:02.320Z,14.30
2022-11-10T10:33:02.267Z,14.35
2022-11-10T10:34:02.117Z,14.41
2022-11-10T10:35:01.927Z,14.42
2022-11-10T10:36:02.162Z,14.42
2022-11-10T10:37:01.975Z,14.44
2022-11-10T10:38:01.719Z,14.48
2022-11-10T10:39:01.799Z,14.51
2022-11-10T10:40:01.688Z,14.57
2022-11-10T10:41:01.518Z,14.62
2022-11-10T10:42:02.396Z,14.68
2022-11-10T10:43:02.145Z,14.72
2022-11-10T10:44:02.361Z,14.75
2022-11-10T10:45:02.621Z,14.76
2022-11-10T10:46:02.039Z,14.76
2022-11-10T10:47:02.803Z,14.76
2022-11-10T10:48:02.348Z,14.76
2022-11-10T10:49:26.740Z,14.74
2022-11-10T10:50:02.905Z,14.75
2022-11-10T10:51:02.664Z,14.78
2022-11-10T10:52:02.105Z,14.79
2022-11-10T10:53:02.062Z,14.80
2022-11-10T10:54:01.983Z,14.79
2022-11-10T10:55:02.187Z,14.76
2022-11-10T10:56:02.172Z,14.74
2022-11-10T10:57:02.302Z,14.74
2022-11-10T10:58:01.883Z,14.73
2022-11-10T10:59:02.199Z,14.75
2022-11-10T11:00:01.870Z,14.79
2022-11-10T11:01:02.269Z,14.85
2022-11-10T11:02:02.417Z,14.91
2022-11-10T11:03:04.586Z,14.96
2022-11-10T11:04:02.278Z,15.01
2022-11-10T11:05:01.939Z,15.06
2022-11-10T11:06:02.447Z,15.10
2022-11-10T11:07:02.507Z,15.13
2022-11-10T11:08:02.528Z,15.17
2022-11-10T11:09:02.134Z,15.19
2022-11-10T11:10:02.239Z,15.22
2022-11-10T11:11:02.591Z,15.25
2022-11-10T11:12:03.104Z,15.27
2022-11-10T11:13:02.552Z,15.28
2022-11-10T11:14:02.780Z,15.30
2022-11-10T11:15:03.192Z,15.34
2022-11-10T11:16:02.967Z,15.39
2022-11-10T11:17:03.301Z,15.44
2022-11-10T11:18:02.854Z,15.49
2022-11-10T11:19:03.229Z,15.52
2022-11-10T11:20:02.712Z,15.55
2022-11-10T11:21:02.734Z,15.56
2022-11-10T11:22:02.581Z,15.60
2022-11-10T11:23:02.210Z,15.66
2022-11-10T11:24:02.429Z,15.73
2022-11-10T11:25:02.634Z,15.79
2022-11-10T11:26:02.155Z,15.87
2022-11-10T11:27:02.963Z,15.92
2022-11-10T11:28:02.646Z,15.95
2022-11-10T11:29:02.991Z,15.93
2022-11-10T11:30:02.965Z,15.94
2022-11-10T11:31:02.489Z,15.95
2022-11-10T11:32:03.126Z,15.94
2022-11-10T11:33:02.607Z,15.94
2022-11-10T11:34:02.738Z,15.96
2022-11-10T11:35:02.840Z,15.97
2022-11-10T11:36:02.590Z,15.95
2022-11-10T11:37:08.414Z,15.97
2022-11-10T11:38:02.235Z,16.01
2022-11-10T11:39:01.917Z,16.06
2022-11-10T11:40:02.081Z,16.12
2022-11-10T11:41:02.048Z,16.17
2022-11-10T11:42:02.960Z,16.18
2022-11-10T11:43:02.553Z,16.14
2022-11-10T11:44:02.688Z,16.12
2022-11-10T11:45:02.580Z,16.14
2022-11-10T11:46:02.709Z,16.18
2022-11-10T11:47:03.181Z,16.24
2022-11-10T11:48:02.582Z,16.30
2022-11-10T11:49:03.042Z,16.33
2022-11-10T11:50:02.685Z,16.37
2022-11-10T11:51:02.985Z,16.39
2022-11-10T11:52:01.861Z,16.43
2022-11-10T11:53:02.059Z,16.47
2022-11-10T11:54:02.329Z,16.53
2022-11-10T11:55:02.070Z,16.54
2022-11-10T11:56:01.948Z,16.54
2022-11-10T11:57:02.075Z,16.54
2022-11-10T11:58:02.227Z,16.52
2022-11-10T11:59:02.478Z,16.52
2022-11-10T12:00:02.561Z,16.50
2022-11-10T12:01:02.463Z,16.46
2022-11-10T12:02:02.818Z,16.43
2022-11-10T12:03:03.051Z,16.43
2022-11-10T12:04:03.049Z,16.39
2022-11-10T12:05:02.729Z,16.36
2022-11-10T12:06:03.187Z,16.34
2022-11-10T12:07:03.283Z,16.30
2022-11-10T12:08:03.175Z,16.28
2022-11-10T12:09:03.247Z,16.29
2022-11-10T12:10:03.221Z,16.29
2022-11-10T12:11:03.387Z,16.32
2022-11-10T12:12:03.783Z,16.35
2022-11-10T12:13:02.897Z,16.39
2022-11-10T12:14:03.157Z,16.45
2022-11-10T12:15:03.170Z,16.50
2022-11-10T12:16:02.967Z,16.55
2022-11-10T12:17:02.968Z,16.62
2022-11-10T12:18:03.771Z,16.68
2022-11-10T12:19:03.606Z,16.71
2022-11-10T12:20:03.649Z,16.70
2022-11-10T12:21:03.997Z,16.70
2022-11-10T12:22:03.641Z,16.69
2022-11-10T12:23:03.315Z,16.68
2022-11-10T12:24:08.852Z,16.65
2022-11-10T12:25:02.965Z,16.65
2022-11-10T12:26:03.101Z,16.67
2022-11-10T12:27:03.063Z,16.66
2022-11-10T12:28:03.042Z,16.68
2022-11-10T12:29:03.076Z,16.71
2022-11-10T12:30:02.513Z,16.75
2022-11-10T12:31:02.942Z,16.76
2022-11-10T12:32:02.487Z,16.78
2022-11-10T12:33:03.182Z,16.77
2022-11-10T12:34:03.046Z,16.75
2022-11-10T12:35:03.296Z,16.76
2022-11-10T12:36:03.075Z,16.76
2022-11-10T12:37:03.172Z,16.77
2022-11-10T12:38:03.142Z,16.79
2022-11-10T12:39:02.539Z,16.81
2022-11-10T12:40:02.860Z,16.84
2022-11-10T12:41:02.922Z,16.90
2022-11-10T12:42:02.903Z,16.94
2022-11-10T12:43:03.670Z,16.98
2022-11-10T12:44:03.848Z,16.99
2022-11-10T12:45:03.691Z,16.98
2022-11-10T12:46:03.448Z,16.95
2022-11-10T12:47:03.180Z,16.92
2022-11-10T12:48:03.112Z,16.91
2022-11-10T12:49:02.622Z,16.90
2022-11-10T12:50:02.615Z,16.93
2022-11-10T12:51:02.723Z,17.00
2022-11-10T12:52:03.144Z,17.10
2022-11-10T12:53:03.742Z,17.19
2022-11-10T12:54:03.805Z,17.25
2022-11-10T12:55:03.635Z,17.25